Time;durP1;ratioP1;P1;durP2;ratioP2;P2;SDS_P1;SDS_P2;PMS_P1;PMS_P2;Temp;Humidity;BMP_temperature;BMP_pressure;BME280_temperature;BME280_humidity;BME280_pressure;Samples;Min_cycle;Max_cycle;Signal;HPM_P1;HPM_P2
2022/02/01 00:01:18;;;;;;;66.10;25.52;;;1.20;99.90;;;;;;2585021;54;20033;31
2022/02/01 00:03:57;;;;;;;67.50;24.90;;;1.10;99.90;;;;;;2585405;54;20110;31
2022/02/01 00:06:42;;;;;;;53.03;23.10;;;1.20;99.90;;;;;;2585445;54;22270;31
2022/02/01 00:09:23;;;;;;;64.90;25.45;;;1.20;99.90;;;;;;2683135;39;22323;31
2022/02/01 00:12:08;;;;;;;55.85;23.40;;;1.20;99.90;;;;;;2584869;54;20933;31
2022/02/01 00:15:17;;;;;;;51.88;22.13;;;1.20;99.90;;;;;;2585060;54;20772;31
2022/02/01 00:20:39;;;;;;;52.10;20.73;;;1.20;99.90;;;;;;2594433;47;20905;31
2022/02/01 00:34:32;;;;;;;71.85;25.70;;;1.30;99.90;;;;;;2585099;54;20027;31
2022/02/01 00:37:10;;;;;;;63.23;24.67;;;1.30;99.90;;;;;;2584973;54;20141;31
2022/02/01 00:39:45;;;;;;;62.60;25.83;;;1.30;99.90;;;;;;2585028;54;20120;31
2022/02/01 00:42:19;;;;;;;64.70;25.65;;;1.30;99.90;;;;;;2585422;54;20069;31
2022/02/01 00:47:21;;;;;;;58.80;25.10;;;1.30;99.90;;;;;;2584795;54;20052;31
2022/02/01 00:49:56;;;;;;;63.80;25.65;;;1.40;99.90;;;;;;2584883;54;20793;31
2022/02/01 00:52:30;;;;;;;66.13;25.48;;;1.40;99.90;;;;;;2584906;54;20022;31
2022/02/01 00:55:04;;;;;;;63.95;24.45;;;1.30;99.90;;;;;;2603512;47;20049;31
2022/02/01 01:00:13;;;;;;;59.20;24.15;;;1.40;99.90;;;;;;2584956;54;20030;31
2022/02/01 01:02:47;;;;;;;64.28;24.70;;;1.40;99.90;;;;;;2585806;54;20039;31
2022/02/01 01:05:20;;;;;;;59.90;24.95;;;1.40;99.90;;;;;;2684038;39;21136;31
2022/02/01 01:07:57;;;;;;;59.35;23.95;;;1.40;99.90;;;;;;2585662;54;20089;31
2022/02/01 01:10:31;;;;;;;57.25;23.23;;;1.40;99.90;;;;;;2585855;54;20993;31
2022/02/01 01:13:16;;;;;;;52.53;23.75;;;1.40;99.90;;;;;;2585852;54;20952;31
2022/02/01 01:46:12;;;;;;;37.33;17.57;;;1.40;99.90;;;;;;2585734;54;20113;31
2022/02/01 01:54:02;;;;;;;44.43;16.83;;;1.30;99.90;;;;;;2585512;54;20029;31
2022/02/01 01:56:36;;;;;;;48.17;16.50;;;1.30;99.90;;;;;;2585922;54;20026;31
2022/02/01 01:59:13;;;;;;;43.83;16.57;;;1.20;99.90;;;;;;2585989;54;22428;31
2022/02/01 02:01:46;;;;;;;32.88;15.00;;;1.30;99.90;;;;;;2585397;54;20028;31
2022/02/01 02:04:20;;;;;;;39.47;15.63;;;1.20;99.90;;;;;;2585747;54;20032;31
2022/02/01 02:06:54;;;;;;;43.70;14.90;;;1.20;99.90;;;;;;2604247;46;21027;31
2022/02/01 02:09:26;;;;;;;31.35;12.85;;;1.20;99.90;;;;;;2585568;54;20059;31
2022/02/01 02:12:09;;;;;;;42.35;14.35;;;1.20;99.90;;;;;;2683873;39;22217;31
2022/02/01 02:14:48;;;;;;;37.38;13.93;;;1.20;99.90;;;;;;2585341;54;20149;31
2022/02/01 02:17:22;;;;;;;38.88;13.85;;;1.20;99.90;;;;;;2585667;54;20051;31
2022/02/01 02:22:27;;;;;;;29.90;12.55;;;1.20;99.90;;;;;;2585616;54;20932;31
2022/02/01 02:25:00;;;;;;;35.50;12.90;;;1.20;99.90;;;;;;2604286;46;20027;31
2022/02/01 02:27:33;;;;;;;31.75;12.55;;;1.20;99.90;;;;;;2603982;46;20815;31
2022/02/01 02:30:05;;;;;;;30.47;13.47;;;1.10;99.90;;;;;;2683695;39;22324;31
2022/02/01 02:32:37;;;;;;;32.55;13.55;;;1.20;99.90;;;;;;2603266;46;20945;31
2022/02/01 02:35:11;;;;;;;41.33;14.60;;;1.10;99.90;;;;;;2604277;46;20871;31
2022/02/01 02:37:46;;;;;;;36.08;14.85;;;1.10;99.90;;;;;;2585562;54;20027;31
2022/02/01 02:40:34;;;;;;;41.60;14.00;;;1.10;99.90;;;;;;2585712;54;20093;31
2022/02/01 02:45:54;;;;;;;;;;;1.20;99.90;;;;;;2585821;54;20034;31
2022/02/01 02:48:26;;;;;;;51.45;15.50;;;1.10;99.90;;;;;;2585057;54;21427;31
2022/02/01 02:51:00;;;;;;;37.40;15.30;;;1.10;99.90;;;;;;2585738;54;20032;31
2022/02/01 02:53:35;;;;;;;40.78;14.50;;;1.10;99.90;;;;;;2585351;54;20943;31
2022/02/01 02:56:09;;;;;;;43.60;15.40;;;1.20;99.90;;;;;;2683124;39;21487;31
2022/02/01 02:58:42;;;;;;;41.70;13.47;;;1.10;99.90;;;;;;2585108;54;21023;31
2022/02/01 03:01:17;;;;;;;34.45;14.20;;;1.20;99.90;;;;;;2585684;54;20084;31
2022/02/01 03:03:51;;;;;;;36.15;14.25;;;1.10;99.90;;;;;;2585140;54;20925;31
2022/02/01 03:08:55;;;;;;;35.25;15.25;;;1.10;99.90;;;;;;2585494;54;20977;31
2022/02/01 03:11:28;;;;;;;44.87;16.73;;;1.20;99.90;;;;;;2683469;39;22297;31
2022/02/01 03:14:04;;;;;;;39.93;14.80;;;1.10;99.90;;;;;;2585001;54;20909;31
2022/02/01 03:16:52;;;;;;;38.63;15.90;;;1.10;99.90;;;;;;2683561;39;22298;31
2022/02/01 03:24:43;;;;;;;44.55;16.55;;;1.10;99.90;;;;;;2585122;54;20061;31
2022/02/01 03:27:16;;;;;;;43.57;17.50;;;1.00;99.90;;;;;;2585494;54;19934;31
2022/02/01 03:29:49;;;;;;;55.58;18.70;;;1.00;99.90;;;;;;2585646;54;20033;31
2022/02/01 03:32:22;;;;;;;46.42;17.10;;;1.00;99.90;;;;;;2585483;54;20037;31
2022/02/01 03:34:55;;;;;;;42.70;16.65;;;1.10;99.90;;;;;;2585175;54;20049;31
2022/02/01 03:37:29;;;;;;;45.85;16.65;;;1.10;99.90;;;;;;2585571;54;20113;31
2022/02/01 03:40:06;;;;;;;45.83;18.80;;;1.10;99.90;;;;;;2585294;54;20076;31
2022/02/01 03:42:41;;;;;;;47.10;18.15;;;1.10;99.90;;;;;;2604198;46;21177;31
2022/02/01 03:45:16;;;;;;;50.80;17.83;;;1.10;99.90;;;;;;2585150;54;20803;31
2022/02/01 03:50:18;;;;;;;49.95;17.80;;;1.10;99.90;;;;;;2585207;54;20068;31
2022/02/01 03:52:52;;;;;;;50.85;16.80;;;1.20;99.90;;;;;;2585167;54;20833;31
2022/02/01 03:55:28;;;;;;;45.60;17.30;;;1.10;99.90;;;;;;2584818;54;21190;31
2022/02/01 03:58:01;;;;;;;47.75;17.00;;;1.20;99.90;;;;;;2585192;54;20573;31
2022/02/01 04:00:35;;;;;;;51.40;16.20;;;1.10;99.90;;;;;;2585138;54;20030;31
2022/02/01 04:03:07;;;;;;;40.50;16.70;;;1.10;99.90;;;;;;2585054;54;20764;31
2022/02/01 04:05:42;;;;;;;49.30;16.48;;;1.10;99.90;;;;;;2603893;47;20973;31
2022/02/01 04:10:49;;;;;;;54.47;16.20;;;1.10;99.90;;;;;;2585103;54;20820;31
2022/02/01 04:15:54;;;;;;;52.05;16.27;;;1.00;99.90;;;;;;2584709;54;20811;31
2022/02/01 04:20:56;;;;;;;46.75;16.45;;;1.00;99.90;;;;;;2683095;39;20558;31
2022/02/01 04:23:29;;;;;;;46.78;15.60;;;1.00;99.90;;;;;;2603415;47;20904;31
2022/02/01 04:26:05;;;;;;;39.25;14.50;;;1.00;99.90;;;;;;2683209;39;21077;31
2022/02/01 04:31:07;;;;;;;42.63;16.20;;;0.90;99.90;;;;;;2584908;54;20167;31
2022/02/01 04:33:41;;;;;;;34.15;14.25;;;0.90;99.90;;;;;;2603419;47;20022;31
2022/02/01 04:36:16;;;;;;;37.30;13.05;;;0.90;99.90;;;;;;2603945;46;20933;31
2022/02/01 04:38:57;;;;;;;36.20;14.80;;;0.90;99.90;;;;;;2585409;54;21000;31
2022/02/01 04:41:31;;;;;;;38.20;13.18;;;0.90;99.90;;;;;;2585717;54;20972;31
2022/02/01 04:44:04;;;;;;;32.13;12.25;;;0.90;99.90;;;;;;2586045;54;20026;31
2022/02/01 04:46:38;;;;;;;37.42;13.02;;;0.90;99.90;;;;;;2585717;54;20030;31
2022/02/01 04:49:11;;;;;;;38.97;12.68;;;0.90;99.90;;;;;;2585385;54;20754;31
2022/02/01 04:51:45;;;;;;;36.90;13.25;;;0.80;99.90;;;;;;2585915;54;20031;31
2022/02/01 04:54:20;;;;;;;44.10;12.82;;;0.90;99.90;;;;;;2585729;54;20897;31
2022/02/01 04:56:57;;;;;;;33.83;13.52;;;0.90;99.90;;;;;;2701829;39;20465;31
2022/02/01 04:59:30;;;;;;;40.55;12.27;;;0.80;99.90;;;;;;2585769;54;20042;31
2022/02/01 05:02:06;;;;;;;38.60;12.40;;;0.90;99.90;;;;;;2585852;54;20080;31
2022/02/01 05:04:40;;;;;;;35.47;12.27;;;0.80;99.90;;;;;;2585748;54;20030;31
2022/02/01 05:07:12;;;;;;;34.63;12.13;;;0.90;99.90;;;;;;2702439;39;21059;31
2022/02/01 05:09:46;;;;;;;41.40;12.93;;;0.80;99.90;;;;;;2604144;46;20046;31
2022/02/01 05:12:23;;;;;;;31.85;12.70;;;0.80;99.90;;;;;;2585685;54;20917;31
2022/02/01 05:14:57;;;;;;;41.10;12.50;;;0.80;99.90;;;;;;2604594;46;20030;31
2022/02/01 05:17:30;;;;;;;45.50;14.23;;;0.80;99.90;;;;;;2585728;54;20925;31
2022/02/01 05:20:14;;;;;;;34.15;14.60;;;0.80;99.90;;;;;;2604325;46;22422;31
2022/02/01 05:22:47;;;;;;;43.92;14.40;;;0.90;99.90;;;;;;2585799;54;20009;31
2022/02/01 05:25:26;;;;;;;34.80;13.15;;;0.90;99.90;;;;;;2683827;39;21105;31
2022/02/01 05:28:03;;;;;;;41.53;13.40;;;0.90;99.90;;;;;;2585628;54;20026;31
2022/02/01 05:30:37;;;;;;;42.45;15.05;;;0.90;99.90;;;;;;2683902;39;21209;31
2022/02/01 05:33:10;;;;;;;44.40;15.60;;;0.90;99.90;;;;;;2585895;54;20022;31
2022/02/01 05:35:43;;;;;;;41.75;15.35;;;0.90;99.90;;;;;;2585568;54;20135;31
2022/02/01 05:38:18;;;;;;;55.20;15.63;;;0.90;99.90;;;;;;2585659;54;21014;31
2022/02/01 05:40:51;;;;;;;32.57;11.50;;;0.90;99.90;;;;;;2585979;54;21913;31
2022/02/01 05:43:27;;;;;;;42.72;15.82;;;0.90;99.90;;;;;;2585372;54;21152;31
2022/02/01 05:46:02;;;;;;;48.63;17.85;;;0.90;99.90;;;;;;2585586;54;20950;31
2022/02/01 05:48:35;;;;;;;77.10;27.33;;;0.90;99.90;;;;;;2585817;54;20026;31
2022/02/01 05:51:09;;;;;;;71.45;28.98;;;0.90;99.90;;;;;;2585783;54;21000;31
2022/02/01 05:53:43;;;;;;;58.45;25.45;;;0.90;99.90;;;;;;2585537;54;20026;31
2022/02/01 05:56:17;;;;;;;68.43;23.23;;;0.90;99.90;;;;;;2585569;54;20179;31
2022/02/01 05:58:52;;;;;;;52.33;19.25;;;0.90;99.90;;;;;;2585635;54;20023;31
2022/02/01 06:01:25;;;;;;;50.65;16.45;;;1.00;99.90;;;;;;2585818;54;20870;31
2022/02/01 06:03:58;;;;;;;47.05;18.45;;;0.90;99.90;;;;;;2585459;54;20038;31
2022/02/01 06:06:31;;;;;;;44.60;16.85;;;0.90;99.90;;;;;;2585676;54;20868;31
2022/02/01 06:09:04;;;;;;;46.07;17.13;;;0.90;99.90;;;;;;2585574;54;20941;31
2022/02/01 06:11:37;;;;;;;47.25;18.90;;;0.90;99.90;;;;;;2585474;54;20942;31
2022/02/01 06:14:13;;;;;;;52.40;16.90;;;0.90;99.90;;;;;;2585553;54;20049;31
2022/02/01 06:16:47;;;;;;;51.97;19.45;;;0.90;99.90;;;;;;2584961;54;20099;31
2022/02/01 06:19:20;;;;;;;45.57;17.30;;;0.90;99.90;;;;;;2585460;54;20026;31
2022/02/01 06:21:54;;;;;;;49.90;19.35;;;0.90;99.90;;;;;;2585731;54;20022;31
2022/02/01 06:24:28;;;;;;;42.67;16.83;;;0.90;99.90;;;;;;2603688;46;20872;31
2022/02/01 06:27:03;;;;;;;38.17;15.43;;;0.90;99.90;;;;;;2585456;54;20897;31
2022/02/01 06:29:39;;;;;;;37.70;14.00;;;0.90;99.90;;;;;;2585678;54;20038;31
2022/02/01 06:32:14;;;;;;;46.05;16.55;;;0.90;99.90;;;;;;2584776;54;20078;31
2022/02/01 06:34:50;;;;;;;36.20;16.67;;;0.90;99.90;;;;;;2585671;54;19934;31
2022/02/01 06:37:25;;;;;;;46.20;18.33;;;0.80;99.90;;;;;;2585626;54;20036;31
2022/02/01 06:40:04;;;;;;;40.10;16.55;;;0.90;99.90;;;;;;2585608;54;20030;31
2022/02/01 06:42:41;;;;;;;35.93;14.07;;;1.00;99.90;;;;;;2585455;54;20026;31
2022/02/01 06:45:17;;;;;;;29.37;11.67;;;0.90;99.90;;;;;;2585397;54;20917;31
2022/02/01 06:47:51;;;;;;;;;;;0.90;99.90;;;;;;2604262;46;20850;31
2022/02/01 06:50:27;;;;;;;29.77;11.60;;;0.90;99.90;;;;;;2585633;54;20807;31
2022/02/01 06:53:02;;;;;;;30.75;11.80;;;0.90;99.90;;;;;;2585711;54;20108;31
2022/02/01 06:55:44;;;;;;;28.60;11.10;;;0.90;99.90;;;;;;2585398;54;20027;31
2022/02/01 06:58:18;;;;;;;30.85;9.90;;;0.90;99.90;;;;;;2585401;54;20903;31
2022/02/01 07:00:56;;;;;;;38.28;11.55;;;0.90;99.90;;;;;;2585556;54;20030;31
2022/02/01 07:03:34;;;;;;;40.22;12.32;;;0.80;99.90;;;;;;2585542;54;20103;31
2022/02/01 07:06:13;;;;;;;29.13;10.30;;;0.80;99.90;;;;;;2603613;46;20026;31
2022/02/01 07:08:47;;;;;;;42.07;13.60;;;0.90;99.90;;;;;;2585507;54;20031;31
2022/02/01 07:11:21;;;;;;;271.45;129.65;;;0.90;99.90;;;;;;2751901;31;21400;31
2022/02/01 07:13:55;;;;;;;295.77;121.80;;;0.90;99.90;;;;;;2585375;54;20030;31
2022/02/01 07:16:37;;;;;;;82.85;33.50;;;0.90;99.90;;;;;;2585066;54;20305;31
2022/02/01 07:19:11;;;;;;;82.37;39.50;;;0.90;99.90;;;;;;2603883;46;20048;31
2022/02/01 07:21:47;;;;;;;39.43;15.40;;;0.80;99.90;;;;;;2584465;54;20961;31
2022/02/01 07:24:28;;;;;;;39.80;15.50;;;0.90;99.90;;;;;;2585171;54;21149;31
2022/02/01 07:27:10;;;;;;;36.30;14.00;;;0.90;99.90;;;;;;2603651;46;22401;31
2022/02/01 07:32:36;;;;;;;44.17;18.40;;;0.90;99.90;;;;;;2585257;54;21024;31
2022/02/01 07:38:08;;;;;;;38.92;16.02;;;1.00;99.90;;;;;;2585457;54;20941;31
2022/02/01 07:40:44;;;;;;;41.67;14.33;;;1.00;99.90;;;;;;2585391;54;20037;31
2022/02/01 07:43:30;;;;;;;41.15;17.70;;;1.00;99.90;;;;;;2584830;54;21085;31
2022/02/01 07:46:09;;;;;;;41.60;15.45;;;1.00;99.90;;;;;;2603202;46;20920;31
2022/02/01 07:48:47;;;;;;;37.80;16.40;;;1.10;99.90;;;;;;2585344;54;21129;31
2022/02/01 07:51:24;;;;;;;40.28;14.40;;;1.00;99.90;;;;;;2585093;54;20426;31
2022/02/01 07:54:01;;;;;;;39.88;13.20;;;1.10;99.90;;;;;;2585377;54;20945;31
2022/02/01 07:56:35;;;;;;;33.95;12.05;;;1.10;99.90;;;;;;2585102;54;20087;31
2022/02/01 07:59:15;;;;;;;39.37;12.30;;;1.10;99.90;;;;;;2584886;54;20245;31
2022/02/01 08:01:47;;;;;;;32.97;11.77;;;1.10;99.90;;;;;;2683454;39;22223;31
2022/02/01 08:04:32;;;;;;;39.70;12.25;;;1.10;99.90;;;;;;2585132;54;20975;31
2022/02/01 08:07:12;;;;;;;34.20;11.00;;;1.10;99.90;;;;;;2683323;39;21069;31
2022/02/01 08:09:51;;;;;;;32.35;9.98;;;1.10;99.90;;;;;;2585301;54;20026;31
2022/02/01 08:18:26;;;;;;;44.40;11.90;;;1.10;99.90;;;;;;2604247;46;20076;31
2022/02/01 08:21:03;;;;;;;37.08;10.63;;;1.10;99.90;;;;;;2585857;54;21256;31
2022/02/01 08:23:41;;;;;;;37.10;11.30;;;1.20;99.90;;;;;;2588106;46;20082;31
2022/02/01 08:26:15;;;;;;;33.35;10.80;;;1.10;99.90;;;;;;2585656;54;20089;31
2022/02/01 08:28:53;;;;;;;31.85;10.10;;;1.10;99.90;;;;;;2585936;54;20777;31
2022/02/01 08:31:47;;;;;;;42.07;13.17;;;1.10;99.90;;;;;;2585750;54;20117;31
2022/02/01 08:34:26;;;;;;;33.40;9.70;;;1.20;99.90;;;;;;2585907;54;20026;31
2022/02/01 08:40:02;;;;;;;28.37;9.27;;;1.20;99.90;;;;;;2585736;54;20964;31
2022/02/01 08:42:39;;;;;;;30.65;9.07;;;1.20;99.90;;;;;;2585776;54;20863;31
2022/02/01 08:45:22;;;;;;;23.88;8.88;;;1.20;99.90;;;;;;2585830;54;20954;31
2022/02/01 08:47:56;;;;;;;30.67;7.72;;;1.30;99.90;;;;;;2604356;46;20026;31
2022/02/01 08:50:33;;;;;;;40.72;14.68;;;1.40;99.90;;;;;;2603552;46;20030;31
2022/02/01 08:53:17;;;;;;;43.07;16.17;;;1.50;99.90;;;;;;2585440;54;19938;31
2022/02/01 08:56:06;;;;;;;25.80;8.75;;;1.50;99.90;;;;;;2585686;54;20053;31
2022/02/01 08:58:41;;;;;;;24.13;8.37;;;1.60;99.90;;;;;;2604281;46;20054;31
2022/02/01 09:01:17;;;;;;;26.10;7.75;;;1.70;99.90;;;;;;2585695;54;20992;31
2022/02/01 09:03:53;;;;;;;19.10;8.10;;;1.70;99.90;;;;;;2604774;46;20948;31
2022/02/01 09:06:27;;;;;;;24.17;7.80;;;1.70;99.90;;;;;;2584997;54;20151;31
2022/02/01 09:09:13;;;;;;;25.13;8.45;;;1.80;99.90;;;;;;2585650;54;20754;31
2022/02/01 09:11:50;;;;;;;26.48;8.18;;;1.80;99.90;;;;;;2586059;54;20846;31
2022/02/01 09:14:28;;;;;;;20.60;7.63;;;1.90;99.90;;;;;;2604249;46;20089;31
2022/02/01 09:17:01;;;;;;;19.85;8.57;;;2.00;99.90;;;;;;2589571;46;20048;31
2022/02/01 09:19:37;;;;;;;18.95;8.55;;;2.00;99.90;;;;;;2585692;54;20945;31
2022/02/01 09:22:13;;;;;;;22.83;8.50;;;1.90;99.90;;;;;;2604112;46;22385;31
2022/02/01 09:24:46;;;;;;;;;;;2.00;99.90;;;;;;2585894;54;20906;31
2022/02/01 09:27:23;;;;;;;25.88;10.00;;;2.00;99.90;;;;;;2585751;54;19985;31
2022/02/01 09:29:57;;;;;;;21.00;9.30;;;2.00;99.90;;;;;;2683877;39;22514;31
2022/02/01 09:32:31;;;;;;;20.50;8.45;;;2.10;99.90;;;;;;2585471;54;20146;31
2022/02/01 09:35:10;;;;;;;24.92;9.23;;;2.10;99.90;;;;;;2585812;54;20915;31
2022/02/01 09:37:45;;;;;;;20.93;7.80;;;2.20;99.90;;;;;;2585553;54;20108;31
2022/02/01 09:40:39;;;;;;;22.50;10.50;;;2.20;99.90;;;;;;2683775;39;21030;31
2022/02/01 09:43:17;;;;;;;17.52;8.88;;;2.30;99.90;;;;;;2585740;54;20955;31
2022/02/01 09:45:56;;;;;;;22.60;9.90;;;2.40;99.90;;;;;;2585573;54;20845;31
2022/02/01 09:48:52;;;;;;;18.50;9.93;;;2.30;99.90;;;;;;2585338;54;20030;31
2022/02/01 09:51:27;;;;;;;17.95;9.20;;;2.40;99.90;;;;;;2590133;46;20999;31
2022/02/01 09:54:21;;;;;;;21.25;10.50;;;2.40;99.90;;;;;;2585746;54;20053;31
2022/02/01 09:57:04;;;;;;;21.85;10.55;;;2.40;99.90;;;;;;2585656;54;19938;31
2022/02/01 09:59:53;;;;;;;18.67;9.67;;;2.40;99.90;;;;;;2604089;46;20027;31
2022/02/01 10:02:40;;;;;;;20.15;9.05;;;2.40;99.90;;;;;;2585482;54;20921;31
2022/02/01 10:05:16;;;;;;;24.20;10.60;;;2.40;99.90;;;;;;2585701;54;20034;31
2022/02/01 10:07:52;;;;;;;20.00;9.30;;;2.40;99.90;;;;;;2585423;54;20943;31
2022/02/01 10:10:25;;;;;;;;;;;2.50;99.90;;;;;;2585479;54;20033;31
2022/02/01 10:13:07;;;;;;;20.93;10.63;;;2.50;99.90;;;;;;2585611;54;20703;31
2022/02/01 10:15:44;;;;;;;25.55;11.15;;;2.50;99.90;;;;;;2603749;46;21240;31
2022/02/01 10:18:30;;;;;;;20.50;9.65;;;2.50;99.90;;;;;;2585584;54;21165;31
2022/02/01 10:21:07;;;;;;;18.65;10.20;;;2.50;99.90;;;;;;2585329;54;20108;31
2022/02/01 10:23:41;;;;;;;21.75;10.77;;;2.40;99.90;;;;;;2585297;54;20908;31
2022/02/01 10:26:21;;;;;;;21.38;9.88;;;2.40;99.90;;;;;;2603973;46;20022;31
2022/02/01 10:31:47;;;;;;;19.90;9.70;;;2.40;99.90;;;;;;2603589;46;20787;31
2022/02/01 10:34:44;;;;;;;24.95;11.40;;;2.30;99.90;;;;;;2603187;47;21033;31
2022/02/01 10:37:41;;;;;;;21.70;10.75;;;2.40;99.90;;;;;;2603792;46;20029;31
2022/02/01 10:40:17;;;;;;;27.50;12.80;;;2.30;99.90;;;;;;2603865;46;22484;31
2022/02/01 10:42:55;;;;;;;24.40;9.95;;;2.40;99.90;;;;;;2585286;54;20037;31
2022/02/01 10:45:39;;;;;;;18.65;9.93;;;2.40;99.90;;;;;;2585691;54;20056;31
2022/02/01 10:48:15;;;;;;;21.60;10.45;;;2.40;99.90;;;;;;2585244;54;20804;31
2022/02/01 10:51:01;;;;;;;26.50;11.70;;;2.40;99.90;;;;;;2702254;39;22410;31
2022/02/01 10:53:34;;;;;;;22.55;12.60;;;2.30;99.90;;;;;;2585671;54;21186;31
2022/02/01 10:56:12;;;;;;;17.10;9.90;;;2.40;99.90;;;;;;2585497;54;20080;31
2022/02/01 10:58:49;;;;;;;23.15;11.05;;;2.40;99.90;;;;;;2585286;54;21015;31
2022/02/01 11:01:29;;;;;;;17.83;9.48;;;2.40;99.90;;;;;;2585137;54;20778;31
2022/02/01 11:04:08;;;;;;;15.83;9.37;;;2.40;99.90;;;;;;2585256;54;20944;31
2022/02/01 11:06:50;;;;;;;16.80;9.50;;;2.40;99.90;;;;;;2585445;54;20030;31
2022/02/01 11:09:23;;;;;;;17.63;9.10;;;2.50;99.90;;;;;;2585043;54;20912;31
2022/02/01 11:11:57;;;;;;;17.30;8.38;;;2.50;99.90;;;;;;2585261;54;20972;31
2022/02/01 11:14:32;;;;;;;15.35;7.05;;;2.50;99.90;;;;;;2585398;54;20029;31
2022/02/01 11:17:10;;;;;;;14.30;8.20;;;2.50;99.90;;;;;;2585061;54;20873;31
2022/02/01 11:22:20;;;;;;;12.53;7.20;;;2.50;99.90;;;;;;2585359;54;20939;31
2022/02/01 11:24:57;;;;;;;14.23;7.53;;;2.50;99.90;;;;;;2603643;46;20984;31
2022/02/01 11:27:48;;;;;;;16.93;7.80;;;2.50;99.90;;;;;;2585409;54;20922;31
2022/02/01 11:30:25;;;;;;;9.10;5.65;;;2.50;99.90;;;;;;2585242;54;20022;31
2022/02/01 11:33:08;;;;;;;13.40;6.80;;;2.50;99.90;;;;;;2585423;54;20931;31
2022/02/01 11:35:42;;;;;;;9.97;6.50;;;2.50;99.90;;;;;;2585099;54;20981;31
2022/02/01 11:38:28;;;;;;;14.85;7.35;;;2.60;99.90;;;;;;2585278;54;20030;31
2022/02/01 11:41:03;;;;;;;13.20;7.25;;;2.60;99.90;;;;;;2585111;54;20030;31
2022/02/01 11:43:48;;;;;;;11.25;5.70;;;2.70;99.90;;;;;;2585076;54;20053;31
2022/02/01 11:46:21;;;;;;;15.80;6.40;;;2.70;99.90;;;;;;2585110;54;20855;31
2022/02/01 11:48:55;;;;;;;13.83;6.33;;;2.70;99.90;;;;;;2585378;54;20944;31
2022/02/01 11:51:49;;;;;;;14.77;7.07;;;2.70;99.90;;;;;;2585274;54;20076;31
2022/02/01 11:54:28;;;;;;;12.15;5.75;;;2.60;99.90;;;;;;2585126;54;20065;31
2022/02/01 11:57:14;;;;;;;11.40;5.90;;;2.60;99.90;;;;;;2603544;46;20918;31
2022/02/01 11:59:59;;;;;;;19.55;5.20;;;2.60;99.90;;;;;;2584971;54;20179;31
2022/02/01 12:02:42;;;;;;;12.80;5.25;;;2.60;99.90;;;;;;2603526;46;19942;31
2022/02/01 12:05:28;;;;;;;16.60;4.70;;;2.60;99.90;;;;;;2585210;54;20031;31
2022/02/01 12:08:12;;;;;;;14.00;5.35;;;2.60;99.90;;;;;;2585250;54;20031;31
2022/02/01 12:10:49;;;;;;;14.93;5.00;;;2.60;99.90;;;;;;2584938;54;20100;31
2022/02/01 12:13:25;;;;;;;12.47;4.33;;;2.70;99.90;;;;;;2583999;54;20966;31
2022/02/01 12:16:10;;;;;;;11.03;4.60;;;2.70;99.90;;;;;;2603415;47;20805;31
2022/02/01 12:18:47;;;;;;;14.10;4.60;;;2.70;99.90;;;;;;2584044;54;20030;31
2022/02/01 12:24:18;;;;;;;13.43;4.80;;;2.80;99.90;;;;;;2585113;54;20033;31
2022/02/01 12:26:55;;;;;;;14.83;4.87;;;2.80;99.90;;;;;;2603793;47;20097;31
2022/02/01 12:29:30;;;;;;;13.10;4.55;;;2.80;99.90;;;;;;2584895;54;20054;31
2022/02/01 12:32:11;;;;;;;10.70;4.35;;;2.80;99.90;;;;;;2584925;54;20781;31
2022/02/01 12:34:50;;;;;;;11.00;4.85;;;2.80;99.90;;;;;;2584884;54;20811;31
2022/02/01 12:37:25;;;;;;;12.40;4.30;;;2.80;99.90;;;;;;2584897;54;21032;31
2022/02/01 12:40:10;;;;;;;13.00;4.67;;;2.80;99.90;;;;;;2584942;54;20986;31
2022/02/01 12:42:53;;;;;;;13.10;5.47;;;2.90;99.90;;;;;;2584648;54;20980;31
2022/02/01 12:48:15;;;;;;;10.50;5.00;;;2.90;99.90;;;;;;2584813;54;20984;31
2022/02/01 12:50:56;;;;;;;17.85;6.15;;;2.90;99.90;;;;;;2599623;47;20504;31
2022/02/01 12:53:39;;;;;;;17.95;5.85;;;2.90;99.90;;;;;;2584949;54;20023;31
2022/02/01 12:56:17;;;;;;;28.65;7.60;;;2.90;99.90;;;;;;2584828;54;20944;31
2022/02/01 12:59:01;;;;;;;20.02;5.85;;;3.00;99.90;;;;;;2604274;46;20074;31
2022/02/01 13:01:35;;;;;;;19.07;6.27;;;2.90;99.90;;;;;;2585860;54;20921;31
2022/02/01 13:06:48;;;;;;;17.93;5.50;;;3.00;99.90;;;;;;2604100;46;20943;31
2022/02/01 13:15:30;;;;;;;18.00;6.40;;;2.90;99.90;;;;;;2604365;46;22427;31
2022/02/01 13:21:04;;;;;;;18.85;6.65;;;2.90;99.90;;;;;;2604187;46;20983;31
2022/02/01 13:23:38;;;;;;;17.00;6.00;;;2.90;99.90;;;;;;2585108;54;20032;31
2022/02/01 13:26:15;;;;;;;11.60;5.57;;;2.90;99.90;;;;;;2604183;46;20031;31
2022/02/01 13:29:14;;;;;;;22.93;7.23;;;2.90;99.90;;;;;;2585786;54;20027;31
2022/02/01 13:31:53;;;;;;;17.05;5.15;;;2.90;99.90;;;;;;2585495;54;20140;31
2022/02/01 13:34:33;;;;;;;21.70;5.83;;;2.90;99.90;;;;;;2585682;54;20030;31
2022/02/01 13:37:14;;;;;;;22.13;9.10;;;2.90;99.90;;;;;;2585523;54;20072;31
2022/02/01 13:39:48;;;;;;;26.95;10.10;;;3.00;99.90;;;;;;2683275;39;20420;31
2022/02/01 13:42:31;;;;;;;17.95;6.43;;;3.00;99.90;;;;;;2585497;54;20944;31
2022/02/01 13:45:16;;;;;;;16.40;6.95;;;3.00;99.90;;;;;;2604073;46;20089;31
2022/02/01 13:47:55;;;;;;;14.85;7.50;;;2.90;99.90;;;;;;2604300;46;20925;31
2022/02/01 13:50:34;;;;;;;24.15;9.05;;;2.90;99.90;;;;;;2585489;54;20038;31
2022/02/01 13:53:09;;;;;;;19.23;7.73;;;3.00;99.90;;;;;;2585403;54;20146;31
2022/02/01 13:55:43;;;;;;;18.35;7.80;;;2.90;99.90;;;;;;2585711;54;20049;31
2022/02/01 13:58:18;;;;;;;23.50;10.75;;;2.90;99.90;;;;;;2683986;39;21105;31
2022/02/01 14:00:59;;;;;;;32.10;15.10;;;3.00;99.90;;;;;;2604340;46;21161;31
2022/02/01 14:03:42;;;;;;;25.95;13.10;;;3.00;99.90;;;;;;2603988;46;20890;31
2022/02/01 14:06:27;;;;;;;23.85;8.43;;;2.90;99.90;;;;;;2603770;46;20923;31
2022/02/01 14:09:14;;;;;;;20.50;8.23;;;3.00;99.90;;;;;;2585376;54;20056;31
2022/02/01 14:12:13;;;;;;;50.50;29.03;;;3.00;99.90;;;;;;2585398;54;20917;31
2022/02/01 14:28:51;;;;;;;19.10;5.70;;;2.90;99.90;;;;;;2603938;46;20883;31
2022/02/01 14:36:48;;;;;;;16.73;5.83;;;2.90;99.90;;;;;;2585414;54;20108;31
2022/02/01 14:42:55;;;;;;;17.85;5.45;;;2.90;99.90;;;;;;2585416;54;20226;31
2022/02/01 14:45:19;;;;;;;19.27;5.68;;;2.90;99.90;;;;;;2585102;54;20116;31
2022/02/01 14:47:58;;;;;;;19.70;5.27;;;2.80;99.90;;;;;;2603455;46;20925;31
2022/02/01 14:50:35;;;;;;;11.40;4.55;;;2.90;99.90;;;;;;2603820;46;20965;31
2022/02/01 14:55:52;;;;;;;16.30;5.30;;;2.90;99.90;;;;;;2585212;54;20965;31
2022/02/01 15:04:15;;;;;;;12.15;4.60;;;2.90;99.90;;;;;;2585211;54;20947;31
2022/02/01 15:07:06;;;;;;;16.45;5.13;;;2.90;99.90;;;;;;2603419;46;20955;31
2022/02/01 15:12:43;;;;;;;19.00;4.88;;;2.90;99.90;;;;;;2585497;54;20849;31
2022/02/01 15:15:19;;;;;;;;;;;2.90;99.90;;;;;;2603848;46;20049;31
2022/02/01 15:17:52;;;;;;;14.05;3.10;;;2.90;99.90;;;;;;2585654;54;19957;31
2022/02/01 15:20:27;;;;;;;7.68;2.85;;;3.00;99.90;;;;;;2584774;54;20899;31
2022/02/01 15:23:01;;;;;;;11.53;3.43;;;2.90;99.90;;;;;;2585086;54;20085;31
2022/02/01 15:25:35;;;;;;;7.55;2.97;;;2.90;99.90;;;;;;2585043;54;20949;31
2022/02/01 15:28:12;;;;;;;17.70;3.20;;;3.00;99.90;;;;;;2585234;54;20034;31
2022/02/01 15:30:45;;;;;;;9.03;3.40;;;2.90;99.90;;;;;;2585068;54;20277;31
2022/02/01 15:33:18;;;;;;;11.75;3.30;;;3.00;99.90;;;;;;2603299;46;21140;31
2022/02/01 15:36:02;;;;;;;13.55;3.60;;;3.00;99.90;;;;;;2603488;46;20929;31
2022/02/01 15:38:41;;;;;;;7.27;2.60;;;3.00;99.90;;;;;;2585138;54;20966;31
2022/02/01 15:56:33;;;;;;;13.00;3.70;;;3.00;99.90;;;;;;2585064;54;20251;31
2022/02/01 15:59:04;;;;;;;10.75;3.58;;;2.90;99.90;;;;;;2603874;46;20031;31
2022/02/01 16:01:43;;;;;;;9.70;3.80;;;3.00;99.90;;;;;;2603381;46;20030;31
2022/02/01 16:04:36;;;;;;;10.52;3.78;;;3.00;99.90;;;;;;2585243;54;20033;31
2022/02/01 16:10:21;;;;;;;7.43;3.83;;;3.00;99.90;;;;;;2584976;54;20041;31
2022/02/01 16:13:03;;;;;;;8.47;4.43;;;2.90;99.90;;;;;;2586744;47;21137;31
2022/02/01 16:15:37;;;;;;;10.40;4.25;;;3.00;99.90;;;;;;2603807;47;20065;31
2022/02/01 16:18:13;;;;;;;12.52;4.97;;;3.00;99.90;;;;;;2584872;54;20030;31
2022/02/01 16:20:46;;;;;;;10.70;4.90;;;3.00;99.90;;;;;;2603566;47;21159;31
2022/02/01 16:23:20;;;;;;;12.00;5.60;;;2.90;99.90;;;;;;2585045;54;20026;31
2022/02/01 16:25:54;;;;;;;13.43;4.85;;;2.90;99.90;;;;;;2585373;54;20026;31
2022/02/01 16:28:28;;;;;;;9.45;4.70;;;2.90;99.90;;;;;;2584725;54;20022;31
2022/02/01 16:31:04;;;;;;;9.63;4.00;;;2.90;99.90;;;;;;2585470;54;20026;31
2022/02/01 16:33:40;;;;;;;8.00;4.22;;;2.90;99.90;;;;;;2585369;54;20918;31
2022/02/01 16:36:34;;;;;;;9.40;4.25;;;2.90;99.90;;;;;;2585881;54;20037;31